sensor_id;sensor_type;location;lat;lon;timestamp;P1;durP1;ratioP1;P2;durP2;ratioP2
6626;SDS011;3349;49.830;8.748;2023-08-20T00:00:18;10.85;;;7.75;;
6626;SDS011;3349;49.830;8.748;2023-08-20T00:02:46;9.23;;;7.70;;
6626;SDS011;3349;49.830;8.748;2023-08-20T00:05:16;11.45;;;8.35;;
6626;SDS011;3349;49.830;8.748;2023-08-20T00:07:44;11.93;;;7.80;;
6626;SDS011;3349;49.830;8.748;2023-08-20T00:10:12;11.10;;;7.78;;
6626;SDS011;3349;49.830;8.748;2023-08-20T00:12:39;9.27;;;8.23;;
6626;SDS011;3349;49.830;8.748;2023-08-20T00:15:06;10.57;;;8.75;;
6626;SDS011;3349;49.830;8.748;2023-08-20T00:17:35;9.55;;;8.20;;
6626;SDS011;3349;49.830;8.748;2023-08-20T00:20:03;11.25;;;8.02;;
6626;SDS011;3349;49.830;8.748;2023-08-20T00:22:37;10.20;;;7.88;;
6626;SDS011;3349;49.830;8.748;2023-08-20T00:25:05;12.55;;;7.78;;
6626;SDS011;3349;49.830;8.748;2023-08-20T00:27:35;10.07;;;7.95;;
6626;SDS011;3349;49.830;8.748;2023-08-20T00:30:01;11.90;;;7.80;;
6626;SDS011;3349;49.830;8.748;2023-08-20T00:32:28;12.18;;;8.27;;
6626;SDS011;3349;49.830;8.748;2023-08-20T00:34:55;9.00;;;8.20;;
6626;SDS011;3349;49.830;8.748;2023-08-20T00:37:22;10.32;;;8.25;;
6626;SDS011;3349;49.830;8.748;2023-08-20T00:39:48;8.80;;;7.90;;
6626;SDS011;3349;49.830;8.748;2023-08-20T00:42:15;9.27;;;7.75;;
6626;SDS011;3349;49.830;8.748;2023-08-20T00:44:43;12.68;;;8.45;;
6626;SDS011;3349;49.830;8.748;2023-08-20T00:47:10;9.15;;;7.93;;
6626;SDS011;3349;49.830;8.748;2023-08-20T00:49:38;13.80;;;8.38;;
6626;SDS011;3349;49.830;8.748;2023-08-20T00:52:06;10.77;;;7.70;;
6626;SDS011;3349;49.830;8.748;2023-08-20T00:54:34;11.60;;;8.25;;
6626;SDS011;3349;49.830;8.748;2023-08-20T00:57:02;10.43;;;7.80;;
6626;SDS011;3349;49.830;8.748;2023-08-20T00:59:29;11.20;;;8.15;;
6626;SDS011;3349;49.830;8.748;2023-08-20T01:01:59;11.52;;;7.75;;
6626;SDS011;3349;49.830;8.748;2023-08-20T01:04:27;9.70;;;7.97;;
6626;SDS011;3349;49.830;8.748;2023-08-20T01:06:58;8.93;;;7.88;;
6626;SDS011;3349;49.830;8.748;2023-08-20T01:09:34;15.70;;;7.65;;
6626;SDS011;3349;49.830;8.748;2023-08-20T01:12:06;8.65;;;7.75;;
6626;SDS011;3349;49.830;8.748;2023-08-20T01:14:34;9.27;;;8.18;;
6626;SDS011;3349;49.830;8.748;2023-08-20T01:17:02;10.25;;;8.15;;
6626;SDS011;3349;49.830;8.748;2023-08-20T01:19:29;9.95;;;8.27;;
6626;SDS011;3349;49.830;8.748;2023-08-20T01:22:05;10.77;;;8.10;;
6626;SDS011;3349;49.830;8.748;2023-08-20T01:24:46;10.02;;;8.35;;
6626;SDS011;3349;49.830;8.748;2023-08-20T01:27:29;15.43;;;8.23;;
6626;SDS011;3349;49.830;8.748;2023-08-20T01:30:09;13.43;;;8.38;;
6626;SDS011;3349;49.830;8.748;2023-08-20T01:32:36;12.80;;;8.30;;
6626;SDS011;3349;49.830;8.748;2023-08-20T01:35:07;11.13;;;8.68;;
6626;SDS011;3349;49.830;8.748;2023-08-20T01:37:35;9.80;;;8.13;;
6626;SDS011;3349;49.830;8.748;2023-08-20T01:40:01;11.77;;;8.30;;
6626;SDS011;3349;49.830;8.748;2023-08-20T01:42:29;11.35;;;7.85;;
6626;SDS011;3349;49.830;8.748;2023-08-20T01:44:55;8.75;;;7.85;;
6626;SDS011;3349;49.830;8.748;2023-08-20T01:47:23;10.13;;;8.32;;
6626;SDS011;3349;49.830;8.748;2023-08-20T01:49:50;10.32;;;8.60;;
6626;SDS011;3349;49.830;8.748;2023-08-20T01:52:17;11.30;;;8.35;;
6626;SDS011;3349;49.830;8.748;2023-08-20T01:54:43;10.65;;;8.10;;
6626;SDS011;3349;49.830;8.748;2023-08-20T01:57:10;10.10;;;8.65;;
6626;SDS011;3349;49.830;8.748;2023-08-20T01:59:37;10.68;;;7.97;;
6626;SDS011;3349;49.830;8.748;2023-08-20T02:02:04;10.77;;;8.60;;
6626;SDS011;3349;49.830;8.748;2023-08-20T02:04:32;10.75;;;8.75;;
6626;SDS011;3349;49.830;8.748;2023-08-20T02:06:59;12.43;;;8.43;;
6626;SDS011;3349;49.830;8.748;2023-08-20T02:09:26;12.63;;;9.45;;
6626;SDS011;3349;49.830;8.748;2023-08-20T02:11:52;13.88;;;8.30;;
6626;SDS011;3349;49.830;8.748;2023-08-20T02:14:19;13.70;;;8.70;;
6626;SDS011;3349;49.830;8.748;2023-08-20T02:16:46;9.85;;;7.97;;
6626;SDS011;3349;49.830;8.748;2023-08-20T02:19:13;13.88;;;8.65;;
6626;SDS011;3349;49.830;8.748;2023-08-20T02:21:41;8.80;;;7.90;;
6626;SDS011;3349;49.830;8.748;2023-08-20T02:24:07;10.10;;;8.50;;
6626;SDS011;3349;49.830;8.748;2023-08-20T02:26:34;14.10;;;8.73;;
6626;SDS011;3349;49.830;8.748;2023-08-20T02:29:01;8.80;;;7.82;;
6626;SDS011;3349;49.830;8.748;2023-08-20T02:31:28;9.57;;;8.32;;
6626;SDS011;3349;49.830;8.748;2023-08-20T02:33:55;13.38;;;8.13;;
6626;SDS011;3349;49.830;8.748;2023-08-20T02:36:21;11.13;;;8.05;;
6626;SDS011;3349;49.830;8.748;2023-08-20T02:38:49;11.10;;;8.73;;
6626;SDS011;3349;49.830;8.748;2023-08-20T02:41:16;14.77;;;9.25;;
6626;SDS011;3349;49.830;8.748;2023-08-20T02:43:43;12.48;;;9.07;;
6626;SDS011;3349;49.830;8.748;2023-08-20T02:46:09;12.15;;;8.90;;
6626;SDS011;3349;49.830;8.748;2023-08-20T02:48:36;9.20;;;8.02;;
6626;SDS011;3349;49.830;8.748;2023-08-20T02:51:03;10.70;;;8.70;;
6626;SDS011;3349;49.830;8.748;2023-08-20T02:53:30;13.18;;;8.57;;
6626;SDS011;3349;49.830;8.748;2023-08-20T02:55:58;12.68;;;8.57;;
6626;SDS011;3349;49.830;8.748;2023-08-20T02:58:24;13.80;;;9.32;;
6626;SDS011;3349;49.830;8.748;2023-08-20T03:00:51;12.88;;;9.35;;
6626;SDS011;3349;49.830;8.748;2023-08-20T03:03:18;11.48;;;9.10;;
6626;SDS011;3349;49.830;8.748;2023-08-20T03:05:44;13.45;;;9.05;;
6626;SDS011;3349;49.830;8.748;2023-08-20T03:08:11;10.05;;;8.77;;
6626;SDS011;3349;49.830;8.748;2023-08-20T03:10:38;11.93;;;10.40;;
6626;SDS011;3349;49.830;8.748;2023-08-20T03:13:06;12.05;;;9.05;;
6626;SDS011;3349;49.830;8.748;2023-08-20T03:15:32;11.77;;;8.65;;
6626;SDS011;3349;49.830;8.748;2023-08-20T03:17:59;11.25;;;9.05;;
6626;SDS011;3349;49.830;8.748;2023-08-20T03:20:26;11.10;;;8.82;;
6626;SDS011;3349;49.830;8.748;2023-08-20T03:22:53;9.98;;;8.68;;
6626;SDS011;3349;49.830;8.748;2023-08-20T03:25:20;13.70;;;9.65;;
6626;SDS011;3349;49.830;8.748;2023-08-20T03:27:46;11.65;;;8.82;;
6626;SDS011;3349;49.830;8.748;2023-08-20T03:30:14;9.30;;;8.32;;
6626;SDS011;3349;49.830;8.748;2023-08-20T03:32:41;12.90;;;8.65;;
6626;SDS011;3349;49.830;8.748;2023-08-20T03:35:08;12.13;;;8.95;;
6626;SDS011;3349;49.830;8.748;2023-08-20T03:37:35;13.98;;;8.93;;
6626;SDS011;3349;49.830;8.748;2023-08-20T03:40:02;11.98;;;9.27;;
6626;SDS011;3349;49.830;8.748;2023-08-20T03:42:30;11.60;;;8.35;;
6626;SDS011;3349;49.830;8.748;2023-08-20T03:44:56;15.02;;;9.80;;
6626;SDS011;3349;49.830;8.748;2023-08-20T03:47:24;9.90;;;8.88;;
6626;SDS011;3349;49.830;8.748;2023-08-20T03:49:51;13.80;;;9.27;;
6626;SDS011;3349;49.830;8.748;2023-08-20T03:52:18;10.85;;;9.20;;
6626;SDS011;3349;49.830;8.748;2023-08-20T03:54:45;12.20;;;8.55;;
6626;SDS011;3349;49.830;8.748;2023-08-20T03:57:12;12.27;;;8.95;;
6626;SDS011;3349;49.830;8.748;2023-08-20T03:59:38;10.20;;;8.63;;
6626;SDS011;3349;49.830;8.748;2023-08-20T04:02:05;9.60;;;8.70;;
6626;SDS011;3349;49.830;8.748;2023-08-20T04:04:33;9.50;;;8.50;;
6626;SDS011;3349;49.830;8.748;2023-08-20T04:07:02;9.23;;;8.27;;
6626;SDS011;3349;49.830;8.748;2023-08-20T04:09:28;10.95;;;9.13;;
6626;SDS011;3349;49.830;8.748;2023-08-20T04:11:56;12.60;;;9.73;;
6626;SDS011;3349;49.830;8.748;2023-08-20T04:14:23;9.77;;;8.75;;
6626;SDS011;3349;49.830;8.748;2023-08-20T04:16:50;10.07;;;9.07;;
6626;SDS011;3349;49.830;8.748;2023-08-20T04:19:16;14.85;;;9.52;;
6626;SDS011;3349;49.830;8.748;2023-08-20T04:21:44;11.52;;;9.25;;
6626;SDS011;3349;49.830;8.748;2023-08-20T04:24:11;11.25;;;8.95;;
6626;SDS011;3349;49.830;8.748;2023-08-20T04:26:38;9.48;;;8.43;;
6626;SDS011;3349;49.830;8.748;2023-08-20T04:29:04;11.93;;;8.82;;
6626;SDS011;3349;49.830;8.748;2023-08-20T04:31:31;11.95;;;8.50;;
6626;SDS011;3349;49.830;8.748;2023-08-20T04:33:58;10.00;;;9.00;;
6626;SDS011;3349;49.830;8.748;2023-08-20T04:36:24;13.80;;;9.45;;
6626;SDS011;3349;49.830;8.748;2023-08-20T04:38:52;10.95;;;8.88;;
6626;SDS011;3349;49.830;8.748;2023-08-20T04:41:19;14.43;;;9.43;;
6626;SDS011;3349;49.830;8.748;2023-08-20T04:43:46;12.98;;;9.13;;
6626;SDS011;3349;49.830;8.748;2023-08-20T04:46:12;16.13;;;9.93;;
6626;SDS011;3349;49.830;8.748;2023-08-20T04:48:40;12.00;;;9.07;;
6626;SDS011;3349;49.830;8.748;2023-08-20T04:51:07;10.63;;;8.93;;
6626;SDS011;3349;49.830;8.748;2023-08-20T04:53:33;10.98;;;8.57;;
6626;SDS011;3349;49.830;8.748;2023-08-20T04:56:01;9.90;;;8.98;;
6626;SDS011;3349;49.830;8.748;2023-08-20T04:58:28;15.55;;;9.20;;
6626;SDS011;3349;49.830;8.748;2023-08-20T05:00:55;10.13;;;9.15;;
6626;SDS011;3349;49.830;8.748;2023-08-20T05:03:22;14.80;;;9.35;;
6626;SDS011;3349;49.830;8.748;2023-08-20T05:05:49;11.15;;;9.93;;
6626;SDS011;3349;49.830;8.748;2023-08-20T05:08:15;12.48;;;11.18;;
6626;SDS011;3349;49.830;8.748;2023-08-20T05:10:42;14.82;;;10.85;;
6626;SDS011;3349;49.830;8.748;2023-08-20T05:13:10;14.27;;;10.98;;
6626;SDS011;3349;49.830;8.748;2023-08-20T05:15:37;14.63;;;11.45;;
6626;SDS011;3349;49.830;8.748;2023-08-20T05:18:04;13.05;;;10.63;;
6626;SDS011;3349;49.830;8.748;2023-08-20T05:20:31;13.80;;;10.18;;
6626;SDS011;3349;49.830;8.748;2023-08-20T05:22:57;13.57;;;10.25;;
6626;SDS011;3349;49.830;8.748;2023-08-20T05:25:24;14.02;;;10.63;;
6626;SDS011;3349;49.830;8.748;2023-08-20T05:27:51;13.55;;;12.27;;
6626;SDS011;3349;49.830;8.748;2023-08-20T05:30:19;12.38;;;10.85;;
6626;SDS011;3349;49.830;8.748;2023-08-20T05:32:46;14.98;;;11.63;;
6626;SDS011;3349;49.830;8.748;2023-08-20T05:35:12;13.32;;;12.02;;
6626;SDS011;3349;49.830;8.748;2023-08-20T05:37:39;13.02;;;11.63;;
6626;SDS011;3349;49.830;8.748;2023-08-20T05:40:06;13.77;;;12.48;;
6626;SDS011;3349;49.830;8.748;2023-08-20T05:42:34;13.25;;;11.88;;
6626;SDS011;3349;49.830;8.748;2023-08-20T05:45:01;16.95;;;12.93;;
6626;SDS011;3349;49.830;8.748;2023-08-20T05:47:29;13.65;;;12.02;;
6626;SDS011;3349;49.830;8.748;2023-08-20T05:49:56;13.98;;;12.57;;
6626;SDS011;3349;49.830;8.748;2023-08-20T05:52:23;13.35;;;11.90;;
6626;SDS011;3349;49.830;8.748;2023-08-20T05:54:49;13.82;;;12.43;;
6626;SDS011;3349;49.830;8.748;2023-08-20T05:57:16;13.60;;;12.20;;
6626;SDS011;3349;49.830;8.748;2023-08-20T05:59:43;16.52;;;13.77;;
6626;SDS011;3349;49.830;8.748;2023-08-20T06:02:10;17.27;;;12.77;;
6626;SDS011;3349;49.830;8.748;2023-08-20T06:04:42;13.95;;;12.52;;
6626;SDS011;3349;49.830;8.748;2023-08-20T06:07:09;16.92;;;13.63;;
6626;SDS011;3349;49.830;8.748;2023-08-20T06:09:36;16.33;;;14.20;;
6626;SDS011;3349;49.830;8.748;2023-08-20T06:12:03;14.32;;;12.80;;
6626;SDS011;3349;49.830;8.748;2023-08-20T06:14:30;16.80;;;14.00;;
6626;SDS011;3349;49.830;8.748;2023-08-20T06:16:57;15.48;;;13.98;;
6626;SDS011;3349;49.830;8.748;2023-08-20T06:19:24;17.90;;;15.43;;
6626;SDS011;3349;49.830;8.748;2023-08-20T06:21:52;16.52;;;14.77;;
6626;SDS011;3349;49.830;8.748;2023-08-20T06:24:18;15.63;;;14.07;;
6626;SDS011;3349;49.830;8.748;2023-08-20T06:26:45;15.15;;;13.10;;
6626;SDS011;3349;49.830;8.748;2023-08-20T06:29:12;14.90;;;13.23;;
6626;SDS011;3349;49.830;8.748;2023-08-20T06:31:39;18.38;;;13.20;;
6626;SDS011;3349;49.830;8.748;2023-08-20T06:34:06;14.13;;;12.70;;
6626;SDS011;3349;49.830;8.748;2023-08-20T06:36:32;14.23;;;12.85;;
6626;SDS011;3349;49.830;8.748;2023-08-20T06:39:01;13.73;;;12.40;;
6626;SDS011;3349;49.830;8.748;2023-08-20T06:41:27;16.98;;;12.98;;
6626;SDS011;3349;49.830;8.748;2023-08-20T06:43:54;13.02;;;11.73;;
6626;SDS011;3349;49.830;8.748;2023-08-20T06:46:21;13.23;;;11.98;;
6626;SDS011;3349;49.830;8.748;2023-08-20T06:48:48;13.45;;;11.95;;
6626;SDS011;3349;49.830;8.748;2023-08-20T06:51:14;14.77;;;13.00;;
6626;SDS011;3349;49.830;8.748;2023-08-20T06:53:41;13.10;;;11.70;;
6626;SDS011;3349;49.830;8.748;2023-08-20T06:56:09;13.80;;;11.85;;
6626;SDS011;3349;49.830;8.748;2023-08-20T06:58:37;14.05;;;11.65;;
6626;SDS011;3349;49.830;8.748;2023-08-20T07:01:05;14.40;;;11.15;;
6626;SDS011;3349;49.830;8.748;2023-08-20T07:03:33;15.57;;;11.40;;
6626;SDS011;3349;49.830;8.748;2023-08-20T07:06:00;11.93;;;10.63;;
6626;SDS011;3349;49.830;8.748;2023-08-20T07:08:27;12.07;;;10.82;;
6626;SDS011;3349;49.830;8.748;2023-08-20T07:10:54;12.07;;;10.60;;
6626;SDS011;3349;49.830;8.748;2023-08-20T07:13:22;15.48;;;11.88;;
6626;SDS011;3349;49.830;8.748;2023-08-20T07:15:49;13.05;;;11.48;;
6626;SDS011;3349;49.830;8.748;2023-08-20T07:18:15;12.27;;;10.98;;
6626;SDS011;3349;49.830;8.748;2023-08-20T07:20:42;14.30;;;12.80;;
6626;SDS011;3349;49.830;8.748;2023-08-20T07:23:10;13.98;;;11.77;;
6626;SDS011;3349;49.830;8.748;2023-08-20T07:25:37;16.90;;;11.77;;
6626;SDS011;3349;49.830;8.748;2023-08-20T07:28:05;13.32;;;11.00;;
6626;SDS011;3349;49.830;8.748;2023-08-20T07:30:33;13.07;;;10.98;;
6626;SDS011;3349;49.830;8.748;2023-08-20T07:33:00;13.00;;;11.10;;
6626;SDS011;3349;49.830;8.748;2023-08-20T07:35:27;11.75;;;10.65;;
6626;SDS011;3349;49.830;8.748;2023-08-20T07:37:54;11.07;;;9.98;;
6626;SDS011;3349;49.830;8.748;2023-08-20T07:40:20;12.50;;;10.55;;
6626;SDS011;3349;49.830;8.748;2023-08-20T07:42:47;10.77;;;9.68;;
6626;SDS011;3349;49.830;8.748;2023-08-20T07:45:15;10.13;;;9.07;;
6626;SDS011;3349;49.830;8.748;2023-08-20T07:47:43;11.73;;;9.55;;
6626;SDS011;3349;49.830;8.748;2023-08-20T07:50:10;10.52;;;9.43;;
6626;SDS011;3349;49.830;8.748;2023-08-20T07:52:36;16.73;;;9.80;;
6626;SDS011;3349;49.830;8.748;2023-08-20T07:55:03;10.38;;;9.38;;
6626;SDS011;3349;49.830;8.748;2023-08-20T07:57:30;11.57;;;9.23;;
6626;SDS011;3349;49.830;8.748;2023-08-20T07:59:57;13.95;;;9.55;;
6626;SDS011;3349;49.830;8.748;2023-08-20T08:02:23;10.45;;;9.52;;
6626;SDS011;3349;49.830;8.748;2023-08-20T08:04:52;10.02;;;8.95;;
6626;SDS011;3349;49.830;8.748;2023-08-20T08:07:18;9.45;;;8.50;;
6626;SDS011;3349;49.830;8.748;2023-08-20T08:09:45;10.45;;;8.43;;
6626;SDS011;3349;49.830;8.748;2023-08-20T08:12:12;9.75;;;8.75;;
6626;SDS011;3349;49.830;8.748;2023-08-20T08:14:38;10.48;;;9.20;;
6626;SDS011;3349;49.830;8.748;2023-08-20T08:17:05;12.65;;;9.18;;
6626;SDS011;3349;49.830;8.748;2023-08-20T08:19:32;10.43;;;8.80;;
6626;SDS011;3349;49.830;8.748;2023-08-20T08:22:00;12.02;;;8.70;;
6626;SDS011;3349;49.830;8.748;2023-08-20T08:24:28;9.73;;;8.60;;
6626;SDS011;3349;49.830;8.748;2023-08-20T08:26:55;11.82;;;9.52;;
6626;SDS011;3349;49.830;8.748;2023-08-20T08:29:21;10.75;;;8.82;;
6626;SDS011;3349;49.830;8.748;2023-08-20T08:31:49;9.60;;;8.63;;
6626;SDS011;3349;49.830;8.748;2023-08-20T08:34:16;9.80;;;8.63;;
6626;SDS011;3349;49.830;8.748;2023-08-20T08:36:43;10.15;;;8.27;;
6626;SDS011;3349;49.830;8.748;2023-08-20T08:39:11;10.50;;;9.10;;
6626;SDS011;3349;49.830;8.748;2023-08-20T08:41:38;10.23;;;9.13;;
6626;SDS011;3349;49.830;8.748;2023-08-20T08:44:06;10.43;;;8.55;;
6626;SDS011;3349;49.830;8.748;2023-08-20T08:46:35;9.70;;;8.70;;
6626;SDS011;3349;49.830;8.748;2023-08-20T08:49:04;9.95;;;8.88;;
6626;SDS011;3349;49.830;8.748;2023-08-20T08:51:32;9.98;;;8.27;;
6626;SDS011;3349;49.830;8.748;2023-08-20T08:54:00;9.40;;;8.57;;
6626;SDS011;3349;49.830;8.748;2023-08-20T08:56:29;9.80;;;8.90;;
6626;SDS011;3349;49.830;8.748;2023-08-20T08:58:56;9.90;;;8.90;;
6626;SDS011;3349;49.830;8.748;2023-08-20T09:01:22;8.95;;;8.05;;
6626;SDS011;3349;49.830;8.748;2023-08-20T09:03:49;9.07;;;8.18;;
6626;SDS011;3349;49.830;8.748;2023-08-20T09:06:16;10.65;;;8.18;;
6626;SDS011;3349;49.830;8.748;2023-08-20T09:08:43;8.50;;;7.70;;
6626;SDS011;3349;49.830;8.748;2023-08-20T09:11:09;9.60;;;8.43;;
6626;SDS011;3349;49.830;8.748;2023-08-20T09:13:38;9.02;;;8.10;;
6626;SDS011;3349;49.830;8.748;2023-08-20T09:16:06;9.63;;;8.73;;
6626;SDS011;3349;49.830;8.748;2023-08-20T09:18:37;9.48;;;8.55;;
6626;SDS011;3349;49.830;8.748;2023-08-20T09:21:06;9.23;;;8.50;;
6626;SDS011;3349;49.830;8.748;2023-08-20T09:23:33;8.73;;;8.02;;
6626;SDS011;3349;49.830;8.748;2023-08-20T09:26:01;9.15;;;8.07;;
6626;SDS011;3349;49.830;8.748;2023-08-20T09:28:28;8.85;;;7.93;;
6626;SDS011;3349;49.830;8.748;2023-08-20T09:30:57;8.48;;;7.60;;
6626;SDS011;3349;49.830;8.748;2023-08-20T09:33:26;8.10;;;7.30;;
6626;SDS011;3349;49.830;8.748;2023-08-20T09:35:53;8.80;;;8.00;;
6626;SDS011;3349;49.830;8.748;2023-08-20T09:38:20;8.82;;;8.05;;
6626;SDS011;3349;49.830;8.748;2023-08-20T09:40:48;8.82;;;8.13;;
6626;SDS011;3349;49.830;8.748;2023-08-20T09:43:17;9.48;;;8.57;;
6626;SDS011;3349;49.830;8.748;2023-08-20T09:45:45;9.30;;;8.43;;
6626;SDS011;3349;49.830;8.748;2023-08-20T09:48:14;9.65;;;8.85;;
6626;SDS011;3349;49.830;8.748;2023-08-20T09:50:44;8.55;;;7.85;;
6626;SDS011;3349;49.830;8.748;2023-08-20T09:56:01;8.88;;;8.18;;
6626;SDS011;3349;49.830;8.748;2023-08-20T09:58:33;8.10;;;7.07;;
6626;SDS011;3349;49.830;8.748;2023-08-20T10:01:01;7.40;;;6.80;;
6626;SDS011;3349;49.830;8.748;2023-08-20T10:03:29;8.02;;;7.22;;
6626;SDS011;3349;49.830;8.748;2023-08-20T10:05:56;8.07;;;7.47;;
6626;SDS011;3349;49.830;8.748;2023-08-20T10:08:24;9.13;;;7.90;;
6626;SDS011;3349;49.830;8.748;2023-08-20T10:10:52;8.52;;;7.75;;
6626;SDS011;3349;49.830;8.748;2023-08-20T10:13:19;8.70;;;8.00;;
6626;SDS011;3349;49.830;8.748;2023-08-20T10:15:46;9.13;;;8.32;;
6626;SDS011;3349;49.830;8.748;2023-08-20T10:18:13;8.93;;;8.07;;
6626;SDS011;3349;49.830;8.748;2023-08-20T10:20:41;9.35;;;8.65;;
6626;SDS011;3349;49.830;8.748;2023-08-20T10:23:08;8.45;;;7.07;;
6626;SDS011;3349;49.830;8.748;2023-08-20T10:25:40;8.25;;;7.63;;
6626;SDS011;3349;49.830;8.748;2023-08-20T10:28:12;7.60;;;7.00;;
6626;SDS011;3349;49.830;8.748;2023-08-20T10:33:33;7.78;;;7.18;;
6626;SDS011;3349;49.830;8.748;2023-08-20T10:36:08;7.97;;;7.38;;
6626;SDS011;3349;49.830;8.748;2023-08-20T10:38:41;8.38;;;7.47;;
6626;SDS011;3349;49.830;8.748;2023-08-20T10:41:07;8.52;;;7.90;;
6626;SDS011;3349;49.830;8.748;2023-08-20T10:43:35;7.80;;;7.07;;
6626;SDS011;3349;49.830;8.748;2023-08-20T10:46:07;7.43;;;6.93;;
6626;SDS011;3349;49.830;8.748;2023-08-20T10:48:40;8.18;;;7.57;;
6626;SDS011;3349;49.830;8.748;2023-08-20T10:51:09;8.65;;;7.95;;
6626;SDS011;3349;49.830;8.748;2023-08-20T10:53:37;7.35;;;6.68;;
6626;SDS011;3349;49.830;8.748;2023-08-20T10:56:07;7.50;;;6.85;;
6626;SDS011;3349;49.830;8.748;2023-08-20T10:58:35;7.32;;;6.72;;
6626;SDS011;3349;49.830;8.748;2023-08-20T11:03:55;7.47;;;6.90;;
6626;SDS011;3349;49.830;8.748;2023-08-20T11:06:23;7.22;;;6.68;;
6626;SDS011;3349;49.830;8.748;2023-08-20T11:08:56;6.88;;;6.38;;
6626;SDS011;3349;49.830;8.748;2023-08-20T11:11:23;7.35;;;6.80;;
6626;SDS011;3349;49.830;8.748;2023-08-20T11:13:50;7.55;;;6.85;;
6626;SDS011;3349;49.830;8.748;2023-08-20T11:16:17;6.57;;;6.07;;
6626;SDS011;3349;49.830;8.748;2023-08-20T11:18:45;7.18;;;6.60;;
6626;SDS011;3349;49.830;8.748;2023-08-20T11:21:12;7.68;;;7.07;;
6626;SDS011;3349;49.830;8.748;2023-08-20T11:23:40;7.82;;;7.32;;
6626;SDS011;3349;49.830;8.748;2023-08-20T11:26:08;7.55;;;6.95;;
6626;SDS011;3349;49.830;8.748;2023-08-20T11:28:34;7.55;;;7.05;;
6626;SDS011;3349;49.830;8.748;2023-08-20T11:31:01;7.18;;;5.97;;
6626;SDS011;3349;49.830;8.748;2023-08-20T11:33:28;6.97;;;6.45;;
6626;SDS011;3349;49.830;8.748;2023-08-20T11:35:55;7.78;;;7.28;;
6626;SDS011;3349;49.830;8.748;2023-08-20T11:38:23;8.52;;;6.57;;
6626;SDS011;3349;49.830;8.748;2023-08-20T11:40:51;7.25;;;6.65;;
6626;SDS011;3349;49.830;8.748;2023-08-20T11:43:18;8.93;;;6.85;;
6626;SDS011;3349;49.830;8.748;2023-08-20T11:45:45;7.60;;;7.00;;
6626;SDS011;3349;49.830;8.748;2023-08-20T11:48:13;8.27;;;7.57;;
6626;SDS011;3349;49.830;8.748;2023-08-20T11:50:40;7.95;;;7.25;;
6626;SDS011;3349;49.830;8.748;2023-08-20T11:53:08;7.85;;;7.13;;
6626;SDS011;3349;49.830;8.748;2023-08-20T11:55:35;7.50;;;6.97;;
6626;SDS011;3349;49.830;8.748;2023-08-20T11:58:05;8.15;;;7.47;;
6626;SDS011;3349;49.830;8.748;2023-08-20T12:00:31;6.95;;;6.38;;
6626;SDS011;3349;49.830;8.748;2023-08-20T12:02:58;8.32;;;7.60;;
6626;SDS011;3349;49.830;8.748;2023-08-20T12:05:28;7.63;;;7.03;;
6626;SDS011;3349;49.830;8.748;2023-08-20T12:07:55;7.43;;;6.72;;
6626;SDS011;3349;49.830;8.748;2023-08-20T12:10:24;6.90;;;6.40;;
6626;SDS011;3349;49.830;8.748;2023-08-20T12:12:52;7.38;;;6.78;;
6626;SDS011;3349;49.830;8.748;2023-08-20T12:15:21;8.57;;;7.88;;
6626;SDS011;3349;49.830;8.748;2023-08-20T12:17:59;7.63;;;7.03;;
6626;SDS011;3349;49.830;8.748;2023-08-20T12:20:29;8.10;;;7.30;;
6626;SDS011;3349;49.830;8.748;2023-08-20T12:23:00;8.82;;;8.02;;
6626;SDS011;3349;49.830;8.748;2023-08-20T12:25:30;8.05;;;7.30;;
6626;SDS011;3349;49.830;8.748;2023-08-20T12:27:58;7.97;;;7.38;;
6626;SDS011;3349;49.830;8.748;2023-08-20T12:30:26;7.40;;;6.70;;
6626;SDS011;3349;49.830;8.748;2023-08-20T12:32:53;8.30;;;7.53;;
6626;SDS011;3349;49.830;8.748;2023-08-20T12:35:20;6.95;;;6.35;;
6626;SDS011;3349;49.830;8.748;2023-08-20T12:37:47;8.55;;;7.85;;
6626;SDS011;3349;49.830;8.748;2023-08-20T12:40:13;10.38;;;7.63;;
6626;SDS011;3349;49.830;8.748;2023-08-20T12:42:40;7.40;;;6.90;;
6626;SDS011;3349;49.830;8.748;2023-08-20T12:45:07;8.77;;;8.00;;
6626;SDS011;3349;49.830;8.748;2023-08-20T12:47:36;8.10;;;7.50;;
6626;SDS011;3349;49.830;8.748;2023-08-20T12:50:03;8.48;;;7.70;;
6626;SDS011;3349;49.830;8.748;2023-08-20T12:52:31;7.68;;;7.07;;
6626;SDS011;3349;49.830;8.748;2023-08-20T12:54:58;8.68;;;7.97;;
6626;SDS011;3349;49.830;8.748;2023-08-20T12:57:25;8.85;;;8.15;;
6626;SDS011;3349;49.830;8.748;2023-08-20T12:59:51;7.13;;;6.53;;
6626;SDS011;3349;49.830;8.748;2023-08-20T13:02:18;7.93;;;7.28;;
6626;SDS011;3349;49.830;8.748;2023-08-20T13:04:47;8.30;;;7.25;;
6626;SDS011;3349;49.830;8.748;2023-08-20T13:07:15;7.95;;;7.32;;
6626;SDS011;3349;49.830;8.748;2023-08-20T13:09:42;6.50;;;6.00;;
6626;SDS011;3349;49.830;8.748;2023-08-20T13:12:10;6.85;;;6.20;;
6626;SDS011;3349;49.830;8.748;2023-08-20T13:14:38;6.93;;;6.25;;
6626;SDS011;3349;49.830;8.748;2023-08-20T13:17:06;6.60;;;6.00;;
6626;SDS011;3349;49.830;8.748;2023-08-20T13:19:33;5.60;;;5.10;;
6626;SDS011;3349;49.830;8.748;2023-08-20T13:22:01;5.80;;;5.13;;
6626;SDS011;3349;49.830;8.748;2023-08-20T13:24:28;6.15;;;5.47;;
6626;SDS011;3349;49.830;8.748;2023-08-20T13:26:55;6.55;;;5.07;;
6626;SDS011;3349;49.830;8.748;2023-08-20T13:29:21;7.88;;;5.40;;
6626;SDS011;3349;49.830;8.748;2023-08-20T13:31:48;5.53;;;4.97;;
6626;SDS011;3349;49.830;8.748;2023-08-20T13:34:15;5.38;;;4.88;;
6626;SDS011;3349;49.830;8.748;2023-08-20T13:36:41;5.30;;;4.65;;
6626;SDS011;3349;49.830;8.748;2023-08-20T13:39:09;6.18;;;4.55;;
6626;SDS011;3349;49.830;8.748;2023-08-20T13:41:38;4.93;;;4.53;;
6626;SDS011;3349;49.830;8.748;2023-08-20T13:44:05;5.10;;;4.60;;
6626;SDS011;3349;49.830;8.748;2023-08-20T13:46:32;5.32;;;4.82;;
6626;SDS011;3349;49.830;8.748;2023-08-20T13:48:59;5.45;;;4.80;;
6626;SDS011;3349;49.830;8.748;2023-08-20T13:51:26;5.20;;;4.55;;
6626;SDS011;3349;49.830;8.748;2023-08-20T13:53:52;6.75;;;4.97;;
6626;SDS011;3349;49.830;8.748;2023-08-20T13:56:20;5.32;;;4.63;;
6626;SDS011;3349;49.830;8.748;2023-08-20T13:58:47;6.80;;;4.40;;
6626;SDS011;3349;49.830;8.748;2023-08-20T14:01:14;5.35;;;4.85;;
6626;SDS011;3349;49.830;8.748;2023-08-20T14:03:40;5.78;;;4.68;;
6626;SDS011;3349;49.830;8.748;2023-08-20T14:06:07;5.65;;;4.82;;
6626;SDS011;3349;49.830;8.748;2023-08-20T14:08:34;4.88;;;4.47;;
6626;SDS011;3349;49.830;8.748;2023-08-20T14:11:00;5.40;;;4.90;;
6626;SDS011;3349;49.830;8.748;2023-08-20T14:13:29;7.93;;;4.97;;
6626;SDS011;3349;49.830;8.748;2023-08-20T14:15:57;5.65;;;4.82;;
6626;SDS011;3349;49.830;8.748;2023-08-20T14:18:25;7.22;;;4.80;;
6626;SDS011;3349;49.830;8.748;2023-08-20T14:20:52;7.38;;;5.00;;
6626;SDS011;3349;49.830;8.748;2023-08-20T14:23:19;7.70;;;4.80;;
6626;SDS011;3349;49.830;8.748;2023-08-20T14:25:45;5.22;;;4.68;;
6626;SDS011;3349;49.830;8.748;2023-08-20T14:28:12;7.82;;;4.93;;
6626;SDS011;3349;49.830;8.748;2023-08-20T14:30:40;5.82;;;4.80;;
6626;SDS011;3349;49.830;8.748;2023-08-20T14:33:07;5.45;;;4.25;;
6626;SDS011;3349;49.830;8.748;2023-08-20T14:35:33;5.15;;;4.10;;
6626;SDS011;3349;49.830;8.748;2023-08-20T14:38:00;6.78;;;4.50;;
6626;SDS011;3349;49.830;8.748;2023-08-20T14:40:27;6.55;;;4.57;;
6626;SDS011;3349;49.830;8.748;2023-08-20T14:42:53;9.75;;;5.30;;
6626;SDS011;3349;49.830;8.748;2023-08-20T14:45:20;6.95;;;5.20;;
6626;SDS011;3349;49.830;8.748;2023-08-20T14:47:48;7.53;;;5.93;;
6626;SDS011;3349;49.830;8.748;2023-08-20T14:50:15;6.65;;;5.32;;
6626;SDS011;3349;49.830;8.748;2023-08-20T14:52:41;6.90;;;5.75;;
6626;SDS011;3349;49.830;8.748;2023-08-20T14:55:08;6.32;;;5.13;;
6626;SDS011;3349;49.830;8.748;2023-08-20T14:57:35;8.10;;;5.53;;
6626;SDS011;3349;49.830;8.748;2023-08-20T15:00:03;6.85;;;5.38;;
6626;SDS011;3349;49.830;8.748;2023-08-20T15:02:33;5.32;;;4.88;;
6626;SDS011;3349;49.830;8.748;2023-08-20T15:05:01;6.53;;;5.93;;
6626;SDS011;3349;49.830;8.748;2023-08-20T15:07:28;8.13;;;6.13;;
6626;SDS011;3349;49.830;8.748;2023-08-20T15:09:54;6.97;;;6.28;;
6626;SDS011;3349;49.830;8.748;2023-08-20T15:12:21;6.10;;;5.60;;
6626;SDS011;3349;49.830;8.748;2023-08-20T15:14:48;6.07;;;5.47;;